Time;durP1;ratioP1;P1;durP2;ratioP2;P2;SDS_P1;SDS_P2;PMS_P1;PMS_P2;Temp;Humidity;BMP_temperature;BMP_pressure;BME280_temperature;BME280_humidity;BME280_pressure;Samples;Min_cycle;Max_cycle;Signal;HPM_P1;HPM_P2
2022/06/22 00:02:00;;;;;;;10.77;5.60;;;15.50;99.90;;;;;;5034541;28;20229;-57
2022/06/22 00:04:41;;;;;;;11.50;5.40;;;15.40;99.90;;;;;;5034637;28;20219;-56
2022/06/22 00:07:26;;;;;;;15.65;5.93;;;15.30;99.90;;;;;;5034099;28;20181;-56
2022/06/22 00:10:04;;;;;;;12.13;5.82;;;15.20;99.90;;;;;;5034474;28;20182;-56
2022/06/22 00:12:31;;;;;;;10.38;5.82;;;15.10;99.90;;;;;;5034043;28;20182;-56
2022/06/22 00:15:01;;;;;;;12.65;6.38;;;15.10;99.90;;;;;;5034405;28;20244;-56
2022/06/22 00:17:38;;;;;;;12.57;6.30;;;15.20;99.90;;;;;;5034360;28;20170;-56
2022/06/22 00:20:25;;;;;;;11.90;6.10;;;15.20;99.90;;;;;;5033944;28;20273;-55
2022/06/22 00:23:13;;;;;;;12.35;5.93;;;15.30;99.90;;;;;;5034299;28;20173;-56
2022/06/22 00:25:40;;;;;;;15.20;5.90;;;15.30;99.90;;;;;;5032726;28;20182;-55
2022/06/22 00:28:33;;;;;;;10.43;5.60;;;15.30;99.90;;;;;;5033097;28;20258;-55
2022/06/22 00:31:21;;;;;;;11.50;5.72;;;14.00;99.90;;;;;;5014146;28;20179;-55
2022/06/22 00:34:21;;;;;;;10.50;5.80;;;15.30;99.90;;;;;;4984936;28;20187;-56
2022/06/22 00:37:02;;;;;;;13.85;6.13;;;15.30;99.90;;;;;;4999089;28;20281;-56
2022/06/22 00:39:28;;;;;;;9.90;6.10;;;15.30;99.90;;;;;;5013814;28;20194;-56
2022/06/22 00:42:14;;;;;;;10.43;5.53;;;15.40;99.90;;;;;;5024947;28;20169;-56
2022/06/22 00:44:50;;;;;;;11.70;6.35;;;15.40;99.90;;;;;;5033359;28;20185;-56
2022/06/22 00:47:30;;;;;;;15.80;7.53;;;15.40;99.90;;;;;;5033893;28;20177;-56
2022/06/22 00:50:16;;;;;;;12.82;7.28;;;15.50;99.90;;;;;;5019807;28;20173;-56
2022/06/22 00:52:47;;;;;;;14.65;8.00;;;15.50;99.90;;;;;;5033616;28;20525;-57
2022/06/22 00:55:37;;;;;;;11.70;7.60;;;15.60;99.90;;;;;;5033756;28;20205;-57
2022/06/22 00:58:08;;;;;;;15.25;6.95;;;15.50;99.90;;;;;;5031122;28;20182;-57
2022/06/22 01:00:39;;;;;;;15.02;7.32;;;15.50;99.90;;;;;;5033138;28;20266;-56
2022/06/22 01:03:16;;;;;;;12.50;6.45;;;15.50;99.90;;;;;;5033206;28;20185;-56
2022/06/22 01:06:16;;;;;;;9.93;7.07;;;15.40;99.90;;;;;;5033622;28;20499;-57
2022/06/22 01:08:52;;;;;;;16.15;6.72;;;15.30;99.90;;;;;;5029476;28;20194;-56
2022/06/22 01:14:18;;;;;;;12.00;7.18;;;15.30;99.90;;;;;;5033031;28;20192;-57
2022/06/22 01:16:47;;;;;;;15.48;7.35;;;15.30;99.90;;;;;;5032982;28;20185;-59
2022/06/22 01:19:31;;;;;;;17.38;7.53;;;15.30;99.90;;;;;;5032920;28;20178;-56
2022/06/22 01:22:17;;;;;;;18.60;7.00;;;15.30;99.90;;;;;;5033272;28;20166;-56
2022/06/22 01:24:54;;;;;;;12.80;6.40;;;15.40;99.90;;;;;;5032590;28;20285;-56
2022/06/22 01:27:46;;;;;;;15.30;6.55;;;15.30;99.90;;;;;;5022871;28;20201;-56
2022/06/22 01:30:24;;;;;;;9.23;6.13;;;15.40;99.90;;;;;;5028497;28;20205;-56
2022/06/22 01:32:50;;;;;;;10.75;6.40;;;15.30;99.90;;;;;;5032816;28;20686;-56
2022/06/22 01:35:34;;;;;;;17.85;7.32;;;15.30;99.90;;;;;;5032564;28;20675;-56
2022/06/22 01:38:24;;;;;;;15.68;7.25;;;15.40;99.90;;;;;;5032940;28;20180;-56
2022/06/22 01:41:29;;;;;;;15.95;7.47;;;15.40;99.90;;;;;;5032655;28;20166;-56
2022/06/22 01:44:02;;;;;;;12.82;7.22;;;15.40;99.90;;;;;;5021269;28;20225;-55
2022/06/22 01:46:46;;;;;;;13.15;7.10;;;15.40;99.90;;;;;;5032430;28;20178;-56
2022/06/22 01:49:23;;;;;;;15.68;6.95;;;15.30;99.90;;;;;;5032430;28;20644;-56
2022/06/22 01:51:58;;;;;;;12.73;6.68;;;15.30;99.90;;;;;;5032516;28;20185;-56
2022/06/22 01:54:32;;;;;;;14.35;6.70;;;15.30;99.90;;;;;;5032705;28;20170;-55
2022/06/22 01:57:06;;;;;;;13.48;6.63;;;15.30;99.90;;;;;;5032207;28;20657;-55
2022/06/22 01:59:37;;;;;;;13.07;6.57;;;15.30;99.90;;;;;;5016523;28;20248;-56
2022/06/22 02:02:30;;;;;;;14.65;6.85;;;15.30;99.90;;;;;;5032006;28;20228;-55
2022/06/22 02:05:19;;;;;;;13.48;6.30;;;15.20;99.90;;;;;;5032020;28;20678;-56
2022/06/22 02:08:19;;;;;;;14.48;6.13;;;15.20;99.90;;;;;;5017004;28;20223;-56
2022/06/22 02:10:52;;;;;;;12.13;6.00;;;15.20;99.90;;;;;;5032299;28;20676;-55
2022/06/22 02:13:39;;;;;;;16.30;5.60;;;15.10;99.90;;;;;;5032018;28;20174;-56
2022/06/22 02:16:26;;;;;;;16.48;5.82;;;15.10;99.90;;;;;;5032104;28;20209;-56
2022/06/22 02:19:13;;;;;;;12.52;6.30;;;15.00;99.90;;;;;;5031924;28;20190;-55
2022/06/22 02:22:00;;;;;;;14.45;6.55;;;15.00;99.90;;;;;;5031911;28;20161;-55
2022/06/22 02:24:28;;;;;;;14.77;6.53;;;15.00;99.90;;;;;;5011733;28;20221;-55
2022/06/22 02:27:12;;;;;;;14.05;6.10;;;14.90;99.90;;;;;;5025684;28;20169;-55
2022/06/22 02:29:42;;;;;;;11.95;6.15;;;14.80;99.90;;;;;;5031932;28;20178;-55
2022/06/22 02:32:16;;;;;;;8.98;5.60;;;14.70;99.90;;;;;;5031353;28;20205;-55
2022/06/22 02:34:47;;;;;;;12.63;5.10;;;14.70;99.90;;;;;;5031837;28;20208;-55
2022/06/22 02:37:13;;;;;;;9.45;4.78;;;14.70;99.90;;;;;;5031750;28;20188;-54
2022/06/22 02:39:51;;;;;;;12.75;5.32;;;14.70;99.90;;;;;;5031288;28;20170;-54
2022/06/22 02:45:04;;;;;;;12.45;5.20;;;14.70;99.90;;;;;;5031583;28;20179;-55
2022/06/22 02:48:09;;;;;;;11.80;6.32;;;14.70;99.90;;;;;;5031403;28;20204;-55
2022/06/22 02:50:43;;;;;;;14.77;6.60;;;14.60;99.90;;;;;;5031597;28;20649;-55
2022/06/22 02:53:23;;;;;;;10.57;5.53;;;14.60;99.90;;;;;;5031505;28;20177;-54
2022/06/22 02:55:50;;;;;;;15.60;5.55;;;14.50;99.90;;;;;;5031387;28;20201;-54
2022/06/22 02:58:30;;;;;;;9.77;4.70;;;14.40;99.90;;;;;;5031545;28;20181;-55
2022/06/22 03:00:59;;;;;;;11.25;5.57;;;14.40;99.90;;;;;;5013527;28;20312;-54
2022/06/22 03:03:25;;;;;;;11.80;5.72;;;14.30;99.90;;;;;;5031139;28;20188;-54
2022/06/22 03:05:55;;;;;;;12.25;5.53;;;14.30;99.90;;;;;;5031398;28;20548;-55
2022/06/22 03:08:22;;;;;;;10.18;5.00;;;14.30;99.90;;;;;;5030133;28;20170;-55
2022/06/22 03:10:50;;;;;;;8.60;4.60;;;14.20;99.90;;;;;;5031378;28;20192;-54
2022/06/22 03:13:43;;;;;;;9.60;4.68;;;14.20;99.90;;;;;;5031076;28;20570;-55
2022/06/22 03:16:21;;;;;;;13.05;4.97;;;14.00;99.90;;;;;;5026773;28;20702;-55
2022/06/22 03:18:50;;;;;;;9.25;4.47;;;14.00;99.90;;;;;;5030503;28;20650;-54
2022/06/22 03:21:17;;;;;;;10.05;4.85;;;14.00;99.90;;;;;;5031061;28;20239;-55
2022/06/22 03:24:05;;;;;;;12.85;4.85;;;14.00;99.90;;;;;;5031196;28;20177;-55
2022/06/22 03:26:33;;;;;;;8.05;4.57;;;14.00;99.90;;;;;;5030591;28;20170;-55
2022/06/22 03:29:08;;;;;;;11.63;4.78;;;13.90;99.90;;;;;;5029738;28;20177;-56
2022/06/22 03:31:46;;;;;;;11.23;4.45;;;14.00;99.90;;;;;;5010530;28;20166;-56
2022/06/22 03:34:19;;;;;;;8.57;4.22;;;13.90;99.90;;;;;;5015082;28;20214;-57
2022/06/22 03:36:50;;;;;;;8.40;3.65;;;13.90;99.90;;;;;;5015214;28;20693;-57
2022/06/22 03:39:19;;;;;;;10.93;4.28;;;13.80;99.90;;;;;;5010413;28;20180;-56
2022/06/22 03:41:52;;;;;;;13.68;4.15;;;13.80;99.90;;;;;;5018036;28;20169;-57
2022/06/22 03:44:26;;;;;;;8.98;4.35;;;13.80;99.90;;;;;;5030188;28;20204;-58
2022/06/22 03:47:28;;;;;;;9.48;4.15;;;13.80;99.90;;;;;;5030287;28;20231;-57
2022/06/22 03:50:13;;;;;;;12.68;4.60;;;13.80;99.90;;;;;;4979250;28;20707;-57
2022/06/22 03:52:45;;;;;;;12.75;4.05;;;13.80;99.90;;;;;;5018122;28;20227;-58
2022/06/22 03:55:15;;;;;;;7.13;4.03;;;13.80;99.90;;;;;;5030402;28;20205;-56
2022/06/22 03:57:44;;;;;;;12.85;3.80;;;13.80;99.90;;;;;;5030325;28;20170;-57
2022/06/22 04:00:12;;;;;;;8.70;3.80;;;13.80;99.90;;;;;;5030628;28;20163;-57
2022/06/22 04:02:39;;;;;;;8.57;3.80;;;13.80;99.90;;;;;;5030513;28;20202;-57
2022/06/22 04:05:06;;;;;;;9.35;4.28;;;13.80;99.90;;;;;;5030476;28;20170;-56
2022/06/22 04:07:39;;;;;;;12.48;4.32;;;13.80;99.90;;;;;;5029595;28;20174;-57
2022/06/22 04:10:12;;;;;;;13.50;4.22;;;13.80;99.90;;;;;;5030236;28;20227;-56
2022/06/22 04:12:44;;;;;;;11.63;4.05;;;13.80;99.90;;;;;;5030980;28;20174;-57
2022/06/22 04:15:29;;;;;;;9.90;4.00;;;13.80;99.90;;;;;;5025495;28;20225;-57
2022/06/22 04:18:07;;;;;;;10.68;4.15;;;13.70;99.90;;;;;;5030097;28;20174;-57
2022/06/22 04:20:52;;;;;;;8.30;4.13;;;13.80;99.90;;;;;;5030354;28;20176;-57
2022/06/22 04:23:26;;;;;;;9.25;3.92;;;13.80;99.90;;;;;;5030286;28;20208;-57
2022/06/22 04:25:57;;;;;;;10.65;4.20;;;13.80;99.90;;;;;;5030344;28;20637;-56
2022/06/22 04:28:25;;;;;;;12.00;3.92;;;13.80;99.90;;;;;;5029869;28;20193;-56
2022/06/22 04:30:53;;;;;;;8.70;4.00;;;13.80;99.90;;;;;;5030468;28;20173;-56
2022/06/22 04:33:37;;;;;;;12.50;4.35;;;13.80;99.90;;;;;;5012194;28;20180;-56
2022/06/22 04:36:14;;;;;;;10.35;3.72;;;13.80;99.90;;;;;;5030121;28;20224;-56
2022/06/22 04:39:11;;;;;;;8.63;3.50;;;13.80;99.90;;;;;;5029978;28;20225;-57
2022/06/22 04:41:39;;;;;;;12.23;3.78;;;13.90;99.90;;;;;;5014433;28;20182;-56
2022/06/22 04:44:22;;;;;;;9.85;4.03;;;13.90;99.90;;;;;;5030443;28;20179;-56
2022/06/22 04:46:53;;;;;;;10.07;3.95;;;13.80;99.90;;;;;;5030805;28;20583;-56
2022/06/22 04:49:49;;;;;;;11.15;3.75;;;13.90;99.90;;;;;;5033915;28;20280;-56
2022/06/22 04:52:26;;;;;;;7.93;3.70;;;13.90;99.90;;;;;;5031384;28;20174;-56
2022/06/22 04:54:57;;;;;;;6.13;3.53;;;13.90;99.90;;;;;;5023533;28;20525;-56
2022/06/22 04:57:27;;;;;;;10.50;3.78;;;13.90;99.90;;;;;;5033867;28;20166;-57
2022/06/22 04:59:54;;;;;;;8.88;3.65;;;14.00;99.90;;;;;;5033663;28;20166;-56
2022/06/22 05:02:24;;;;;;;11.35;3.63;;;14.00;99.90;;;;;;5033585;28;20305;-55
2022/06/22 05:04:53;;;;;;;9.07;3.88;;;14.00;99.90;;;;;;5033528;28;20169;-56
2022/06/22 05:07:29;;;;;;;7.55;3.28;;;14.10;99.90;;;;;;5031850;28;20212;-56
2022/06/22 05:10:28;;;;;;;9.32;3.67;;;14.10;99.90;;;;;;5033537;28;20178;-55
2022/06/22 05:13:09;;;;;;;9.85;3.65;;;14.20;99.90;;;;;;5027817;28;20186;-56
2022/06/22 05:15:38;;;;;;;9.50;2.95;;;14.30;99.90;;;;;;5033178;28;20687;-56
2022/06/22 05:18:11;;;;;;;14.80;3.47;;;14.40;99.90;;;;;;5033227;28;20181;-56
2022/06/22 05:20:51;;;;;;;8.43;3.80;;;14.50;99.90;;;;;;5033278;28;20227;-56
2022/06/22 05:23:19;;;;;;;6.10;3.20;;;14.70;99.90;;;;;;5033216;28;20579;-56
2022/06/22 05:25:51;;;;;;;8.57;3.45;;;14.80;99.90;;;;;;5015603;28;20209;-56
2022/06/22 05:28:37;;;;;;;8.35;3.50;;;14.80;99.90;;;;;;5032963;28;20197;-57
2022/06/22 05:31:34;;;;;;;8.20;3.80;;;14.90;99.90;;;;;;5033355;28;20190;-56
2022/06/22 05:34:05;;;;;;;12.65;3.53;;;15.00;99.90;;;;;;5031732;28;20196;-56
2022/06/22 05:36:37;;;;;;;7.97;3.08;;;15.10;99.90;;;;;;5033229;28;20218;-56
2022/06/22 05:39:05;;;;;;;14.07;3.70;;;15.10;99.90;;;;;;5033046;28;20178;-56
2022/06/22 05:41:35;;;;;;;8.73;3.60;;;15.10;99.90;;;;;;5032261;28;20177;-56
2022/06/22 05:44:07;;;;;;;6.43;3.22;;;15.10;99.90;;;;;;5032681;28;20185;-55
2022/06/22 05:46:33;;;;;;;10.73;3.58;;;15.00;99.90;;;;;;5032492;28;20181;-56
2022/06/22 05:49:00;;;;;;;9.60;3.85;;;15.10;99.90;;;;;;5032919;28;20264;-56
2022/06/22 05:51:46;;;;;;;8.48;3.10;;;15.10;99.90;;;;;;5032956;28;20174;-55
2022/06/22 05:54:23;;;;;;;8.18;3.35;;;15.20;99.90;;;;;;5032929;28;20174;-56
2022/06/22 05:57:08;;;;;;;7.68;3.22;;;15.30;99.90;;;;;;5015120;28;20181;-56
2022/06/22 05:59:46;;;;;;;10.00;3.58;;;15.30;99.90;;;;;;5032378;28;20170;-56
2022/06/22 06:02:42;;;;;;;9.20;3.25;;;15.40;99.90;;;;;;5032445;28;20230;-56
2022/06/22 06:05:37;;;;;;;10.52;3.47;;;15.60;99.90;;;;;;5032519;28;20572;-56
2022/06/22 06:08:34;;;;;;;10.77;3.55;;;15.70;99.90;;;;;;5032251;28;20177;-57
2022/06/22 06:11:00;;;;;;;14.30;3.83;;;15.70;99.90;;;;;;5001101;28;20703;-62
2022/06/22 06:13:46;;;;;;;11.73;3.40;;;15.70;99.90;;;;;;5031825;28;20677;-58
2022/06/22 06:16:45;;;;;;;8.13;3.08;;;15.90;99.90;;;;;;5029148;28;21586;-58
2022/06/22 06:19:15;;;;;;;7.85;2.97;;;15.90;99.90;;;;;;5022606;28;20193;-59
2022/06/22 06:21:41;;;;;;;7.00;3.60;;;15.90;99.90;;;;;;5031601;28;20248;-58
2022/06/22 06:24:25;;;;;;;13.80;3.58;;;16.00;99.90;;;;;;5032017;28;20188;-57
2022/06/22 06:30:07;;;;;;;10.70;3.47;;;16.00;99.90;;;;;;5032354;28;20184;-58
2022/06/22 06:32:36;;;;;;;13.82;3.33;;;;;;;;;;5031299;28;20659;-57
2022/06/22 06:35:19;;;;;;;9.50;3.20;;;16.10;99.90;;;;;;5031759;28;20205;-57
2022/06/22 06:37:57;;;;;;;11.82;3.67;;;16.10;99.90;;;;;;5031674;28;20676;-56
2022/06/22 06:41:01;;;;;;;9.02;3.47;;;16.20;99.90;;;;;;5031764;28;20228;-58
2022/06/22 06:43:38;;;;;;;8.65;3.15;;;16.30;99.90;;;;;;5022237;28;20188;-57
2022/06/22 06:46:13;;;;;;;7.63;3.38;;;16.30;99.90;;;;;;5031508;28;20203;-56
2022/06/22 06:48:41;;;;;;;9.30;3.60;;;16.30;99.90;;;;;;5031797;28;20189;-57
2022/06/22 06:51:12;;;;;;;6.82;3.17;;;16.40;99.90;;;;;;5031387;28;20671;-57
2022/06/22 06:53:43;;;;;;;9.25;3.40;;;16.40;99.90;;;;;;5030006;28;20213;-58
2022/06/22 06:56:24;;;;;;;12.45;3.95;;;16.50;99.90;;;;;;5017290;28;20617;-57
2022/06/22 06:59:16;;;;;;;7.30;3.10;;;16.50;99.90;;;;;;5020204;28;20240;-59
2022/06/22 07:01:44;;;;;;;11.05;3.40;;;16.60;99.90;;;;;;5019938;28;20247;-59
2022/06/22 07:04:28;;;;;;;8.38;3.75;;;16.70;99.90;;;;;;5020646;28;20198;-58
2022/06/22 07:06:59;;;;;;;15.55;4.15;;;16.70;99.90;;;;;;5011910;28;20236;-60
2022/06/22 07:09:31;;;;;;;8.20;3.92;;;16.80;99.90;;;;;;5016556;28;20173;-60
2022/06/22 07:12:26;;;;;;;12.00;3.58;;;17.00;99.90;;;;;;5030837;28;20663;-61
2022/06/22 07:14:51;;;;;;;6.30;3.50;;;15.70;99.90;;;;;;5010524;28;20742;-61
2022/06/22 07:17:20;;;;;;;7.65;3.03;;;17.10;99.90;;;;;;5011365;28;20265;-61
2022/06/22 07:20:01;;;;;;;6.38;3.35;;;17.30;99.90;;;;;;5031196;28;20233;-57
2022/06/22 07:22:48;;;;;;;11.02;4.05;;;17.30;99.90;;;;;;5030687;28;20583;-60
2022/06/22 07:25:42;;;;;;;9.00;3.30;;;17.40;99.90;;;;;;5029603;28;20694;-60
2022/06/22 07:28:25;;;;;;;10.75;4.30;;;17.50;99.90;;;;;;5020371;28;20232;-61
2022/06/22 07:31:02;;;;;;;7.10;3.53;;;17.60;99.90;;;;;;5030637;28;20668;-60
2022/06/22 07:33:40;;;;;;;9.48;3.65;;;17.70;99.90;;;;;;5030895;28;20541;-57
2022/06/22 07:36:28;;;;;;;10.90;4.40;;;17.80;99.90;;;;;;5030796;28;20349;-57
2022/06/22 07:39:04;;;;;;;14.27;3.83;;;18.00;99.90;;;;;;5030750;28;20201;-57
2022/06/22 07:41:31;;;;;;;12.27;4.47;;;18.20;99.90;;;;;;5030420;28;20548;-57
2022/06/22 07:44:00;;;;;;;8.95;4.20;;;18.30;99.90;;;;;;5030346;28;20682;-58
2022/06/22 07:46:53;;;;;;;14.07;4.53;;;18.40;99.90;;;;;;5030596;28;20236;-56
2022/06/22 07:49:25;;;;;;;6.80;3.80;;;18.50;99.90;;;;;;5030578;28;20169;-68
2022/06/22 07:51:55;;;;;;;10.20;3.92;;;18.70;99.90;;;;;;4997014;28;20648;-57
2022/06/22 07:54:33;;;;;;;13.23;4.05;;;18.80;99.90;;;;;;5029883;28;20224;-58
2022/06/22 07:57:39;;;;;;;11.27;5.03;;;18.80;99.90;;;;;;5030498;28;20217;-60
2022/06/22 08:00:11;;;;;;;13.88;4.07;;;19.00;99.90;;;;;;5010870;28;20710;-62
2022/06/22 08:03:02;;;;;;;11.05;4.03;;;19.10;99.90;;;;;;5026961;28;20202;-58
2022/06/22 08:05:34;;;;;;;9.18;3.90;;;19.10;99.90;;;;;;5029380;28;20239;-58
2022/06/22 08:08:16;;;;;;;10.00;3.88;;;19.30;99.90;;;;;;5030498;28;20296;-58
2022/06/22 08:11:06;;;;;;;10.55;4.35;;;19.50;99.90;;;;;;5030618;28;20290;-57
2022/06/22 08:13:40;;;;;;;12.35;3.85;;;19.50;99.90;;;;;;5018071;28;20193;-60
2022/06/22 08:16:12;;;;;;;7.43;3.70;;;19.60;99.90;;;;;;5030434;28;20275;-58
2022/06/22 08:18:38;;;;;;;9.35;3.65;;;19.80;99.90;;;;;;5030231;28;20786;-57
2022/06/22 08:21:05;;;;;;;13.70;4.47;;;20.00;99.90;;;;;;5031636;28;20179;-57
2022/06/22 08:23:35;;;;;;;11.32;4.30;;;20.10;99.90;;;;;;5034089;28;20169;-58
2022/06/22 08:26:06;;;;;;;11.32;3.80;;;20.00;99.90;;;;;;5034380;28;20216;-56
2022/06/22 08:28:35;;;;;;;7.25;3.95;;;20.10;99.90;;;;;;5033442;28;20200;-57
2022/06/22 08:31:02;;;;;;;10.65;4.10;;;20.30;99.90;;;;;;5033916;28;20178;-57
2022/06/22 08:33:34;;;;;;;12.00;3.92;;;20.40;99.90;;;;;;5016146;28;20655;-57
2022/06/22 08:36:07;;;;;;;8.40;3.70;;;20.90;99.90;;;;;;5033851;28;20296;-58
2022/06/22 08:38:57;;;;;;;10.77;3.78;;;20.80;99.90;;;;;;5033416;28;20710;-57
2022/06/22 08:42:11;;;;;;;9.23;3.53;;;21.00;99.90;;;;;;5032596;28;20648;-57
2022/06/22 08:45:01;;;;;;;9.10;3.22;;;21.40;99.90;;;;;;4953037;28;20296;-58
2022/06/22 08:48:28;;;;;;;13.88;3.97;;;21.60;99.90;;;;;;4952561;29;20259;-57
2022/06/22 08:51:18;;;;;;;12.27;3.88;;;21.70;99.90;;;;;;4953166;29;20185;-58
2022/06/22 08:54:22;;;;;;;10.15;3.20;;;22.00;99.90;;;;;;5033889;28;20223;-57
2022/06/22 08:57:22;;;;;;;13.23;3.60;;;22.50;99.90;;;;;;5022897;28;20286;-57
2022/06/22 09:00:07;;;;;;;12.23;3.42;;;22.90;99.90;;;;;;4996194;28;20232;-57
2022/06/22 09:03:04;;;;;;;8.40;3.35;;;23.20;99.90;;;;;;5033497;28;20300;-57
2022/06/22 09:06:12;;;;;;;8.82;2.95;;;23.60;99.90;;;;;;5031729;28;20166;-58
2022/06/22 09:08:49;;;;;;;8.50;2.90;;;23.90;99.90;;;;;;4993846;28;20758;-57
2022/06/22 09:11:21;;;;;;;15.60;3.40;;;24.00;99.90;;;;;;5031588;28;20177;-57
2022/06/22 09:14:08;;;;;;;10.50;3.20;;;24.50;99.90;;;;;;5031270;28;20182;-57
2022/06/22 09:16:34;;;;;;;8.65;3.40;;;24.80;99.90;;;;;;5031064;28;20799;-58
2022/06/22 09:19:25;;;;;;;8.85;3.20;;;24.90;99.90;;;;;;5031737;28;20248;-59
2022/06/22 09:21:56;;;;;;;9.45;3.22;;;24.80;99.90;;;;;;5033061;28;20723;-58
2022/06/22 09:24:40;;;;;;;10.13;3.88;;;24.90;99.90;;;;;;5033149;28;20216;-58
2022/06/22 09:27:16;;;;;;;13.50;3.17;;;24.50;99.90;;;;;;5033360;28;20216;-58
2022/06/22 09:29:53;;;;;;;8.07;3.65;;;25.00;99.90;;;;;;5033429;28;20197;-59
2022/06/22 09:32:43;;;;;;;9.13;3.53;;;25.20;99.90;;;;;;5032620;28;20178;-56
2022/06/22 09:35:33;;;;;;;10.55;3.63;;;25.00;99.90;;;;;;5032675;28;20209;-57
2022/06/22 09:38:11;;;;;;;12.55;3.78;;;25.20;99.90;;;;;;5032960;28;20252;-57
2022/06/22 09:41:04;;;;;;;8.55;3.88;;;24.80;99.90;;;;;;5032819;28;20525;-57
2022/06/22 09:43:57;;;;;;;8.77;3.65;;;25.20;99.90;;;;;;5032676;28;20178;-57
2022/06/22 09:46:38;;;;;;;6.93;2.92;;;25.40;99.90;;;;;;5033081;28;20174;-57
2022/06/22 09:49:13;;;;;;;13.18;3.63;;;25.90;99.90;;;;;;5032653;28;20230;-57
2022/06/22 09:52:24;;;;;;;9.00;3.03;;;26.20;99.90;;;;;;5032636;28;20162;-57
2022/06/22 09:58:28;;;;;;;10.82;3.47;;;26.10;99.90;;;;;;5033315;28;20188;-57
2022/06/22 10:01:32;;;;;;;8.60;3.17;;;26.30;99.90;;;;;;5032390;28;20683;-57
2022/06/22 10:03:57;;;;;;;14.23;3.05;;;26.70;99.90;;;;;;5032312;28;20161;-57
2022/06/22 10:06:47;;;;;;;10.77;2.78;;;27.20;99.90;;;;;;5032396;28;20174;-58
2022/06/22 10:09:31;;;;;;;9.55;2.83;;;27.50;99.90;;;;;;5032408;28;20714;-57
2022/06/22 10:12:11;;;;;;;11.98;3.60;;;27.60;99.90;;;;;;5032120;28;20182;-58
2022/06/22 10:15:11;;;;;;;7.68;3.38;;;27.80;99.90;;;;;;5032046;28;20248;-57
2022/06/22 10:18:06;;;;;;;13.32;3.25;;;27.90;99.90;;;;;;5032209;28;20640;-58
2022/06/22 10:20:55;;;;;;;8.48;3.47;;;27.80;99.90;;;;;;5003248;28;20698;-57
2022/06/22 10:23:58;;;;;;;8.65;2.92;;;27.40;99.90;;;;;;5031787;28;20182;-57
2022/06/22 10:26:47;;;;;;;13.50;2.92;;;27.10;99.90;;;;;;5032053;28;20185;-58
2022/06/22 10:29:19;;;;;;;13.15;3.10;;;27.20;99.90;;;;;;5031852;28;20178;-57
2022/06/22 10:31:57;;;;;;;7.32;2.78;;;27.70;99.90;;;;;;5031860;28;20202;-57
2022/06/22 10:34:56;;;;;;;10.30;3.15;;;27.70;99.90;;;;;;5031907;28;20664;-58
2022/06/22 10:37:59;;;;;;;8.88;3.25;;;27.90;99.90;;;;;;5031796;28;20193;-58
2022/06/22 10:47:24;;;;;;;7.60;3.00;;;29.00;99.90;;;;;;4951695;28;20622;-58
2022/06/22 10:50:01;;;;;;;12.93;3.20;;;28.70;99.90;;;;;;5031635;28;20582;-56
2022/06/22 10:52:48;;;;;;;5.20;2.33;;;28.30;99.90;;;;;;5031776;28;20180;-57
2022/06/22 10:55:58;;;;;;;8.48;2.58;;;28.50;99.90;;;;;;5031455;28;20198;-57
2022/06/22 10:58:39;;;;;;;8.98;3.10;;;29.20;99.90;;;;;;5011221;28;20236;-57
2022/06/22 11:01:20;;;;;;;9.90;2.90;;;28.60;99.90;;;;;;5031260;28;20225;-59
2022/06/22 11:03:59;;;;;;;11.30;3.35;;;28.50;99.90;;;;;;5031317;28;20252;-57
2022/06/22 11:06:41;;;;;;;7.80;3.17;;;29.20;99.90;;;;;;5031731;28;20248;-57
2022/06/22 11:09:31;;;;;;;9.18;2.85;;;29.50;99.90;;;;;;5031404;28;20170;-58
2022/06/22 11:12:16;;;;;;;8.00;2.92;;;29.60;99.90;;;;;;5031349;28;20193;-58
2022/06/22 11:15:07;;;;;;;10.50;3.30;;;29.40;99.90;;;;;;5031142;28;20257;-58
2022/06/22 11:18:10;;;;;;;9.13;2.90;;;28.80;99.90;;;;;;5031276;28;20253;-57
2022/06/22 11:20:44;;;;;;;11.88;3.15;;;29.00;99.90;;;;;;5031220;28;20560;-58
2022/06/22 11:23:28;;;;;;;5.65;2.67;;;29.20;99.90;;;;;;5031146;28;20238;-58
2022/06/22 11:32:15;;;;;;;11.52;3.20;;;29.40;99.90;;;;;;5031109;28;20176;-58
2022/06/22 11:35:27;;;;;;;11.20;3.03;;;28.80;99.90;;;;;;5030903;28;20207;-59
2022/06/22 11:38:20;;;;;;;10.32;3.08;;;28.60;99.90;;;;;;4950287;28;20200;-58
2022/06/22 11:40:46;;;;;;;12.55;3.28;;;28.70;99.90;;;;;;4950654;29;20602;-59
2022/06/22 11:43:36;;;;;;;9.93;3.20;;;28.80;99.90;;;;;;5002582;28;20185;-57
2022/06/22 11:46:25;;;;;;;7.45;3.00;;;29.00;99.90;;;;;;5030724;28;20181;-56
2022/06/22 11:49:13;;;;;;;6.05;2.67;;;28.60;99.90;;;;;;5030826;28;20169;-57
2022/06/22 11:51:57;;;;;;;8.65;2.40;;;28.20;99.90;;;;;;5030800;28;20181;-58
2022/06/22 11:54:41;;;;;;;5.75;2.40;;;27.80;99.90;;;;;;5030740;28;20181;-58
2022/06/22 11:57:15;;;;;;;7.93;2.70;;;29.00;99.90;;;;;;5033571;28;20185;-58
2022/06/22 12:00:06;;;;;;;13.02;3.05;;;29.50;99.90;;;;;;5034752;28;20174;-58
2022/06/22 12:03:04;;;;;;;10.52;2.92;;;30.00;99.90;;;;;;5034531;28;20229;-58
2022/06/22 12:05:51;;;;;;;6.43;2.72;;;30.40;99.90;;;;;;5028939;28;20185;-58
2022/06/22 12:08:20;;;;;;;9.52;3.05;;;29.90;99.90;;;;;;5034587;28;20178;-58
2022/06/22 12:10:47;;;;;;;11.50;3.22;;;29.70;99.90;;;;;;5034631;28;20193;-58
2022/06/22 12:13:19;;;;;;;6.97;3.67;;;30.40;99.90;;;;;;5034449;28;20212;-57
2022/06/22 12:15:50;;;;;;;7.95;3.15;;;31.50;99.90;;;;;;5034525;28;20216;-58
2022/06/22 12:18:46;;;;;;;8.57;3.10;;;31.40;99.90;;;;;;5034525;28;20162;-59
2022/06/22 12:21:45;;;;;;;10.32;2.90;;;31.30;99.90;;;;;;5034229;28;20174;-58
2022/06/22 12:24:54;;;;;;;8.70;2.95;;;31.30;99.90;;;;;;5034231;28;20187;-58
2022/06/22 12:27:22;;;;;;;11.48;2.95;;;30.00;99.90;;;;;;5034118;28;20181;-58
2022/06/22 12:29:54;;;;;;;8.30;2.78;;;31.00;99.90;;;;;;5034088;28;20181;-57
2022/06/22 12:32:34;;;;;;;8.45;3.03;;;30.60;99.90;;;;;;5034055;28;20167;-58
2022/06/22 12:35:25;;;;;;;6.07;2.88;;;29.60;99.90;;;;;;5033992;28;20208;-58
2022/06/22 12:37:56;;;;;;;10.30;3.38;;;29.20;99.90;;;;;;5034108;28;20177;-58
2022/06/22 12:40:44;;;;;;;15.52;3.60;;;28.80;99.90;;;;;;5033890;28;20272;-58
2022/06/22 12:43:35;;;;;;;10.18;3.13;;;28.90;99.90;;;;;;5016048;28;20181;-58
2022/06/22 12:46:20;;;;;;;8.65;3.10;;;29.70;99.90;;;;;;5030000;28;20193;-58
2022/06/22 12:48:46;;;;;;;6.72;2.60;;;29.90;99.90;;;;;;5033835;28;20178;-58
2022/06/22 12:51:38;;;;;;;9.93;3.00;;;30.00;99.90;;;;;;5033824;28;20224;-58
2022/06/22 12:54:14;;;;;;;13.68;2.92;;;31.30;99.90;;;;;;5033836;28;20172;-57
2022/06/22 12:56:47;;;;;;;6.88;2.90;;;31.90;99.90;;;;;;5033653;28;20240;-58
2022/06/22 12:59:24;;;;;;;12.25;2.67;;;32.90;99.90;;;;;;5033629;28;20193;-58
2022/06/22 13:01:50;;;;;;;5.78;2.45;;;33.80;99.90;;;;;;5033553;28;20217;-57
2022/06/22 13:04:19;;;;;;;9.65;2.75;;;33.50;99.90;;;;;;5033606;28;20166;-58
2022/06/22 13:06:50;;;;;;;7.07;2.85;;;33.90;99.90;;;;;;5033424;28;20209;-58
2022/06/22 13:09:17;;;;;;;8.77;2.90;;;33.90;99.90;;;;;;5032727;28;20170;-58
2022/06/22 13:11:44;;;;;;;7.35;2.90;;;34.30;99.90;;;;;;5033583;28;20174;-58
2022/06/22 13:14:29;;;;;;;6.78;2.78;;;34.20;99.90;;;;;;5033642;28;20232;-58
2022/06/22 13:17:27;;;;;;;4.97;2.20;;;33.20;99.90;;;;;;5033293;28;20291;-58
2022/06/22 13:20:12;;;;;;;8.32;2.53;;;34.00;99.90;;;;;;5033206;28;20162;-57
2022/06/22 13:22:37;;;;;;;6.30;2.80;;;34.90;99.90;;;;;;5033410;28;20193;-58
2022/06/22 13:25:09;;;;;;;6.78;2.97;;;35.00;99.90;;;;;;5033087;28;20178;-59
2022/06/22 13:27:35;;;;;;;10.90;3.03;;;34.00;99.90;;;;;;5032934;28;20174;-58
2022/06/22 13:30:18;;;;;;;6.40;2.85;;;34.40;99.90;;;;;;5033199;28;20169;-58
2022/06/22 13:32:54;;;;;;;6.70;2.78;;;34.90;99.90;;;;;;5033308;28;20234;-58
2022/06/22 13:35:32;;;;;;;6.10;2.47;;;35.50;99.90;;;;;;5033241;28;20197;-58
2022/06/22 13:38:14;;;;;;;7.53;2.60;;;35.80;99.90;;;;;;5033281;28;20165;-59
2022/06/22 13:40:57;;;;;;;6.35;2.78;;;36.30;99.90;;;;;;5032791;28;20758;-58
2022/06/22 13:43:34;;;;;;;8.50;2.90;;;37.30;99.90;;;;;;5032973;28;20280;-58
2022/06/22 13:46:24;;;;;;;8.57;2.88;;;37.20;99.90;;;;;;5033066;28;20181;-59
2022/06/22 13:49:02;;;;;;;6.68;3.05;;;35.90;99.90;;;;;;5032931;28;20173;-59
2022/06/22 13:51:50;;;;;;;12.63;3.25;;;35.40;99.90;;;;;;5032666;28;20177;-59
2022/06/22 13:54:35;;;;;;;7.72;2.60;;;34.50;99.90;;;;;;5032673;28;20680;-59
2022/06/22 13:57:15;;;;;;;10.32;3.10;;;35.50;99.90;;;;;;5032392;28;20213;-58
2022/06/22 13:59:51;;;;;;;7.30;2.75;;;35.60;99.90;;;;;;5032352;28;20636;-59
2022/06/22 14:02:42;;;;;;;9.15;2.65;;;35.20;99.90;;;;;;5032189;28;20221;-58
2022/06/22 14:05:40;;;;;;;7.28;2.60;;;35.90;99.90;;;;;;5031844;28;20169;-59
2022/06/22 14:08:12;;;;;;;5.28;3.00;;;36.10;99.90;;;;;;5031668;28;20201;-59
2022/06/22 14:10:45;;;;;;;9.23;2.72;;;35.40;99.90;;;;;;5032274;28;20169;-59
2022/06/22 14:13:20;;;;;;;11.13;2.95;;;35.40;99.90;;;;;;5032218;28;20667;-59